Amarillo (AMA/KAMA)

Map

Destinations

Information

Location
Amarillo, TX
Local Time
00:33 / 12:33 am
GMT Time
06:33 / 6:33 am
Gates
Unassigned
No FAA reported delays
METAR KAMA 220553Z AUTO 20009KT 10SM CLR 09/M02 A3000 RMK AO2 SLP128 T00941017 10217 20072 402441006 58007
TAF KAMA 220520Z 2206/2306 19008KT P6SM FEW300 FM221000 26011KT P6SM BKN300 FM230000 20010KT P6SM OVC250
  • No charts available